Mirando City, Texas
Current Conditions -  °F | °C
As of 3:15 AM on Monday 20 Oct 2014 (Local Time) from KHBV Reporting Station
Clear Clear  
Wind Chill: 67°   Ceiling: Unl
Heat Index: 67°   Visibility: 10mi
Dew Point: 64°   Wind: 5mph
Humidity: 92%   Direction: 40°NE
Pressure: 29.98"   Gusts: NA
Location:  27.44°N, 99°W
Report Text: KHBV 200815Z AUTO 04004KT 10SM CLR 19/18 A2998 RMK AO2 T01930180
Loading
Personal Weather Stations






























Interactive Weather Map
Tropical Storm Tracking
New forecast layout! Learn more

10-Day Weather Forecast

Advertisements
Track Severe Weather on mobile